sensor_id;sensor_type;location;lat;lon;timestamp;temperature;humidity
74384;DHT22;62824;52.994;-3.936;2024-01-30T00:00:26;7.30;99.90
74384;DHT22;62824;52.994;-3.936;2024-01-30T00:02:52;7.30;99.90
74384;DHT22;62824;52.994;-3.936;2024-01-30T00:05:17;7.40;99.90
74384;DHT22;62824;52.994;-3.936;2024-01-30T00:07:44;7.30;99.90
74384;DHT22;62824;52.994;-3.936;2024-01-30T00:10:10;7.30;99.90
74384;DHT22;62824;52.994;-3.936;2024-01-30T00:12:42;7.30;99.90
74384;DHT22;62824;52.994;-3.936;2024-01-30T00:15:08;7.30;99.90
74384;DHT22;62824;52.994;-3.936;2024-01-30T00:17:37;7.40;99.90
74384;DHT22;62824;52.994;-3.936;2024-01-30T00:20:04;7.40;99.90
74384;DHT22;62824;52.994;-3.936;2024-01-30T00:22:34;7.40;99.90
74384;DHT22;62824;52.994;-3.936;2024-01-30T00:25:00;7.30;99.90
74384;DHT22;62824;52.994;-3.936;2024-01-30T00:27:26;7.30;99.90
74384;DHT22;62824;52.994;-3.936;2024-01-30T00:29:56;7.30;99.90
74384;DHT22;62824;52.994;-3.936;2024-01-30T00:32:22;7.30;99.90
74384;DHT22;62824;52.994;-3.936;2024-01-30T00:34:49;7.20;99.90
74384;DHT22;62824;52.994;-3.936;2024-01-30T00:37:15;7.20;99.90
74384;DHT22;62824;52.994;-3.936;2024-01-30T00:39:41;7.20;99.90
74384;DHT22;62824;52.994;-3.936;2024-01-30T00:42:07;7.20;99.90
74384;DHT22;62824;52.994;-3.936;2024-01-30T00:44:35;7.10;99.90
74384;DHT22;62824;52.994;-3.936;2024-01-30T00:47:04;7.10;99.90
74384;DHT22;62824;52.994;-3.936;2024-01-30T00:49:33;7.10;99.90
74384;DHT22;62824;52.994;-3.936;2024-01-30T00:51:59;7.10;99.90
74384;DHT22;62824;52.994;-3.936;2024-01-30T00:54:26;7.10;99.90
74384;DHT22;62824;52.994;-3.936;2024-01-30T00:56:52;7.10;99.90
74384;DHT22;62824;52.994;-3.936;2024-01-30T00:59:18;7.00;99.90
74384;DHT22;62824;52.994;-3.936;2024-01-30T01:01:44;6.90;99.90
74384;DHT22;62824;52.994;-3.936;2024-01-30T01:04:11;6.80;99.90
74384;DHT22;62824;52.994;-3.936;2024-01-30T01:06:37;6.70;99.90
74384;DHT22;62824;52.994;-3.936;2024-01-30T01:09:03;6.70;99.90
74384;DHT22;62824;52.994;-3.936;2024-01-30T01:11:29;6.70;99.90
74384;DHT22;62824;52.994;-3.936;2024-01-30T01:13:55;6.70;99.90
74384;DHT22;62824;52.994;-3.936;2024-01-30T01:16:21;6.70;99.90
74384;DHT22;62824;52.994;-3.936;2024-01-30T01:18:47;6.70;99.90
74384;DHT22;62824;52.994;-3.936;2024-01-30T01:21:16;6.70;99.90
74384;DHT22;62824;52.994;-3.936;2024-01-30T01:23:42;6.80;99.90
74384;DHT22;62824;52.994;-3.936;2024-01-30T01:26:08;6.80;99.90
74384;DHT22;62824;52.994;-3.936;2024-01-30T01:28:35;6.80;99.90
74384;DHT22;62824;52.994;-3.936;2024-01-30T01:31:01;6.80;99.90
74384;DHT22;62824;52.994;-3.936;2024-01-30T01:33:34;6.70;99.90
74384;DHT22;62824;52.994;-3.936;2024-01-30T01:36:01;6.70;99.90
74384;DHT22;62824;52.994;-3.936;2024-01-30T01:38:28;6.70;99.90
74384;DHT22;62824;52.994;-3.936;2024-01-30T01:40:54;6.80;99.90
74384;DHT22;62824;52.994;-3.936;2024-01-30T01:43:20;6.70;99.90
74384;DHT22;62824;52.994;-3.936;2024-01-30T01:45:46;6.70;99.90
74384;DHT22;62824;52.994;-3.936;2024-01-30T01:48:12;6.60;99.90
74384;DHT22;62824;52.994;-3.936;2024-01-30T01:50:39;6.50;99.90
74384;DHT22;62824;52.994;-3.936;2024-01-30T01:53:07;6.40;99.90
74384;DHT22;62824;52.994;-3.936;2024-01-30T01:55:34;6.40;99.90
74384;DHT22;62824;52.994;-3.936;2024-01-30T01:58:01;6.30;99.90
74384;DHT22;62824;52.994;-3.936;2024-01-30T02:00:28;6.40;99.90
74384;DHT22;62824;52.994;-3.936;2024-01-30T02:02:57;6.50;99.90
74384;DHT22;62824;52.994;-3.936;2024-01-30T02:05:24;6.40;99.90
74384;DHT22;62824;52.994;-3.936;2024-01-30T02:07:50;6.40;99.90
74384;DHT22;62824;52.994;-3.936;2024-01-30T02:10:17;6.40;99.90
74384;DHT22;62824;52.994;-3.936;2024-01-30T02:12:43;6.30;99.90
74384;DHT22;62824;52.994;-3.936;2024-01-30T02:15:13;6.30;99.90
74384;DHT22;62824;52.994;-3.936;2024-01-30T02:17:39;6.30;99.90
74384;DHT22;62824;52.994;-3.936;2024-01-30T02:20:05;6.30;99.90
74384;DHT22;62824;52.994;-3.936;2024-01-30T02:22:33;6.30;99.90
74384;DHT22;62824;52.994;-3.936;2024-01-30T02:25:00;6.30;99.90
74384;DHT22;62824;52.994;-3.936;2024-01-30T02:27:26;6.30;99.90
74384;DHT22;62824;52.994;-3.936;2024-01-30T02:29:52;6.40;99.90
74384;DHT22;62824;52.994;-3.936;2024-01-30T02:32:18;6.40;99.90
74384;DHT22;62824;52.994;-3.936;2024-01-30T02:34:44;6.50;99.90
74384;DHT22;62824;52.994;-3.936;2024-01-30T02:37:10;6.60;99.90
74384;DHT22;62824;52.994;-3.936;2024-01-30T02:39:36;6.60;99.90
74384;DHT22;62824;52.994;-3.936;2024-01-30T02:42:02;6.60;99.90
74384;DHT22;62824;52.994;-3.936;2024-01-30T02:44:28;6.50;99.90
74384;DHT22;62824;52.994;-3.936;2024-01-30T02:46:54;6.40;99.90
74384;DHT22;62824;52.994;-3.936;2024-01-30T02:49:20;6.40;99.90
74384;DHT22;62824;52.994;-3.936;2024-01-30T02:51:47;6.30;99.90
74384;DHT22;62824;52.994;-3.936;2024-01-30T02:54:13;6.20;99.90
74384;DHT22;62824;52.994;-3.936;2024-01-30T02:56:38;6.20;99.90
74384;DHT22;62824;52.994;-3.936;2024-01-30T02:59:05;6.20;99.90
74384;DHT22;62824;52.994;-3.936;2024-01-30T03:01:30;6.10;99.90
74384;DHT22;62824;52.994;-3.936;2024-01-30T03:03:57;6.20;99.90
74384;DHT22;62824;52.994;-3.936;2024-01-30T03:06:23;6.10;99.90
74384;DHT22;62824;52.994;-3.936;2024-01-30T03:08:49;6.10;99.90
74384;DHT22;62824;52.994;-3.936;2024-01-30T03:11:15;6.10;99.90
74384;DHT22;62824;52.994;-3.936;2024-01-30T03:13:41;6.00;99.90
74384;DHT22;62824;52.994;-3.936;2024-01-30T03:16:08;6.00;99.90
74384;DHT22;62824;52.994;-3.936;2024-01-30T03:18:34;6.00;99.90
74384;DHT22;62824;52.994;-3.936;2024-01-30T03:21:00;6.00;99.90
74384;DHT22;62824;52.994;-3.936;2024-01-30T03:23:26;6.10;99.90
74384;DHT22;62824;52.994;-3.936;2024-01-30T03:25:52;6.10;99.90
74384;DHT22;62824;52.994;-3.936;2024-01-30T03:28:18;6.10;99.90
74384;DHT22;62824;52.994;-3.936;2024-01-30T03:30:44;6.10;99.90
74384;DHT22;62824;52.994;-3.936;2024-01-30T03:33:10;6.00;99.90
74384;DHT22;62824;52.994;-3.936;2024-01-30T03:35:36;6.10;99.90
74384;DHT22;62824;52.994;-3.936;2024-01-30T03:38:02;6.10;99.90
74384;DHT22;62824;52.994;-3.936;2024-01-30T03:40:29;6.00;99.90
74384;DHT22;62824;52.994;-3.936;2024-01-30T03:42:54;6.00;99.90
74384;DHT22;62824;52.994;-3.936;2024-01-30T03:45:21;6.00;99.90
74384;DHT22;62824;52.994;-3.936;2024-01-30T03:47:46;6.00;99.90
74384;DHT22;62824;52.994;-3.936;2024-01-30T03:50:15;6.00;99.90
74384;DHT22;62824;52.994;-3.936;2024-01-30T03:52:41;6.00;99.90
74384;DHT22;62824;52.994;-3.936;2024-01-30T03:55:07;6.00;99.90
74384;DHT22;62824;52.994;-3.936;2024-01-30T03:57:33;6.00;99.90
74384;DHT22;62824;52.994;-3.936;2024-01-30T03:59:59;6.10;99.90
74384;DHT22;62824;52.994;-3.936;2024-01-30T04:02:26;6.10;99.90
74384;DHT22;62824;52.994;-3.936;2024-01-30T04:04:52;6.10;99.90
74384;DHT22;62824;52.994;-3.936;2024-01-30T04:07:21;6.10;99.90
74384;DHT22;62824;52.994;-3.936;2024-01-30T04:09:47;6.10;99.90
74384;DHT22;62824;52.994;-3.936;2024-01-30T04:12:13;6.10;99.90
74384;DHT22;62824;52.994;-3.936;2024-01-30T04:14:42;6.10;99.90
74384;DHT22;62824;52.994;-3.936;2024-01-30T04:17:12;6.20;99.90
74384;DHT22;62824;52.994;-3.936;2024-01-30T04:19:38;6.20;99.90
74384;DHT22;62824;52.994;-3.936;2024-01-30T04:22:05;6.10;99.90
74384;DHT22;62824;52.994;-3.936;2024-01-30T04:24:31;6.10;99.90
74384;DHT22;62824;52.994;-3.936;2024-01-30T04:26:57;6.10;99.90
74384;DHT22;62824;52.994;-3.936;2024-01-30T04:29:24;6.10;99.90
74384;DHT22;62824;52.994;-3.936;2024-01-30T04:31:53;6.10;99.90
74384;DHT22;62824;52.994;-3.936;2024-01-30T04:34:19;6.10;99.90
74384;DHT22;62824;52.994;-3.936;2024-01-30T04:36:48;6.00;99.90
74384;DHT22;62824;52.994;-3.936;2024-01-30T04:39:14;6.10;99.90
74384;DHT22;62824;52.994;-3.936;2024-01-30T04:41:44;6.10;99.90
74384;DHT22;62824;52.994;-3.936;2024-01-30T04:44:10;6.10;99.90
74384;DHT22;62824;52.994;-3.936;2024-01-30T04:46:36;6.10;99.90
74384;DHT22;62824;52.994;-3.936;2024-01-30T04:49:02;6.10;99.90
74384;DHT22;62824;52.994;-3.936;2024-01-30T04:51:29;6.20;99.90
74384;DHT22;62824;52.994;-3.936;2024-01-30T04:53:55;6.20;99.90
74384;DHT22;62824;52.994;-3.936;2024-01-30T04:56:21;6.20;99.90
74384;DHT22;62824;52.994;-3.936;2024-01-30T04:58:47;6.20;99.90
74384;DHT22;62824;52.994;-3.936;2024-01-30T05:01:17;6.20;99.90
74384;DHT22;62824;52.994;-3.936;2024-01-30T05:03:43;6.20;99.90
74384;DHT22;62824;52.994;-3.936;2024-01-30T05:06:09;6.20;99.90
74384;DHT22;62824;52.994;-3.936;2024-01-30T05:08:35;6.10;99.90
74384;DHT22;62824;52.994;-3.936;2024-01-30T05:11:06;6.10;99.90
74384;DHT22;62824;52.994;-3.936;2024-01-30T05:13:32;6.10;99.90
74384;DHT22;62824;52.994;-3.936;2024-01-30T05:15:58;6.10;99.90
74384;DHT22;62824;52.994;-3.936;2024-01-30T05:18:24;6.10;99.90
74384;DHT22;62824;52.994;-3.936;2024-01-30T05:20:51;6.20;99.90
74384;DHT22;62824;52.994;-3.936;2024-01-30T05:23:20;6.10;99.90
74384;DHT22;62824;52.994;-3.936;2024-01-30T05:25:48;6.10;99.90
74384;DHT22;62824;52.994;-3.936;2024-01-30T05:28:14;6.10;99.90
74384;DHT22;62824;52.994;-3.936;2024-01-30T05:30:40;6.10;99.90
74384;DHT22;62824;52.994;-3.936;2024-01-30T05:33:06;6.10;99.90
74384;DHT22;62824;52.994;-3.936;2024-01-30T05:35:32;6.10;99.90
74384;DHT22;62824;52.994;-3.936;2024-01-30T05:37:58;6.10;99.90
74384;DHT22;62824;52.994;-3.936;2024-01-30T05:40:27;6.10;99.90
74384;DHT22;62824;52.994;-3.936;2024-01-30T05:42:53;6.10;99.90
74384;DHT22;62824;52.994;-3.936;2024-01-30T07:14:14;6.00;99.90
74384;DHT22;62824;52.994;-3.936;2024-01-30T07:16:40;5.90;99.90
74384;DHT22;62824;52.994;-3.936;2024-01-30T07:19:06;5.90;99.90
74384;DHT22;62824;52.994;-3.936;2024-01-30T07:21:35;6.00;99.90
74384;DHT22;62824;52.994;-3.936;2024-01-30T07:24:00;5.90;99.90
74384;DHT22;62824;52.994;-3.936;2024-01-30T07:26:27;6.00;99.90
74384;DHT22;62824;52.994;-3.936;2024-01-30T07:28:53;5.90;99.90
74384;DHT22;62824;52.994;-3.936;2024-01-30T07:31:22;5.80;99.90
74384;DHT22;62824;52.994;-3.936;2024-01-30T07:33:49;5.80;99.90
74384;DHT22;62824;52.994;-3.936;2024-01-30T07:36:23;5.90;99.90
74384;DHT22;62824;52.994;-3.936;2024-01-30T07:38:49;5.90;99.90
74384;DHT22;62824;52.994;-3.936;2024-01-30T07:41:24;5.90;99.90
74384;DHT22;62824;52.994;-3.936;2024-01-30T07:43:51;6.00;99.90
74384;DHT22;62824;52.994;-3.936;2024-01-30T07:46:17;6.00;99.90
74384;DHT22;62824;52.994;-3.936;2024-01-30T07:48:43;5.90;99.90
74384;DHT22;62824;52.994;-3.936;2024-01-30T07:51:09;5.90;99.90
74384;DHT22;62824;52.994;-3.936;2024-01-30T07:53:35;5.90;99.90
74384;DHT22;62824;52.994;-3.936;2024-01-30T07:56:01;5.90;99.90
74384;DHT22;62824;52.994;-3.936;2024-01-30T07:58:28;5.90;99.90
74384;DHT22;62824;52.994;-3.936;2024-01-30T08:00:54;6.00;99.90
74384;DHT22;62824;52.994;-3.936;2024-01-30T08:03:22;6.00;99.90
74384;DHT22;62824;52.994;-3.936;2024-01-30T08:05:48;5.90;99.90
74384;DHT22;62824;52.994;-3.936;2024-01-30T08:08:14;6.00;99.90
74384;DHT22;62824;52.994;-3.936;2024-01-30T08:10:40;5.90;99.90
74384;DHT22;62824;52.994;-3.936;2024-01-30T08:13:07;5.90;99.90
74384;DHT22;62824;52.994;-3.936;2024-01-30T08:15:34;5.90;99.90
74384;DHT22;62824;52.994;-3.936;2024-01-30T08:18:00;5.90;99.90
74384;DHT22;62824;52.994;-3.936;2024-01-30T08:20:35;5.90;99.90
74384;DHT22;62824;52.994;-3.936;2024-01-30T08:23:05;5.90;99.90
74384;DHT22;62824;52.994;-3.936;2024-01-30T08:25:33;5.90;99.90
74384;DHT22;62824;52.994;-3.936;2024-01-30T08:27:58;5.90;99.90
74384;DHT22;62824;52.994;-3.936;2024-01-30T08:30:25;5.90;99.90
74384;DHT22;62824;52.994;-3.936;2024-01-30T08:32:51;5.90;99.90
74384;DHT22;62824;52.994;-3.936;2024-01-30T08:35:17;6.00;99.90
74384;DHT22;62824;52.994;-3.936;2024-01-30T08:37:43;5.90;99.90
74384;DHT22;62824;52.994;-3.936;2024-01-30T08:40:09;5.90;99.90
74384;DHT22;62824;52.994;-3.936;2024-01-30T08:42:35;6.00;99.90
74384;DHT22;62824;52.994;-3.936;2024-01-30T08:45:02;5.90;99.90
74384;DHT22;62824;52.994;-3.936;2024-01-30T08:47:30;6.00;99.90
74384;DHT22;62824;52.994;-3.936;2024-01-30T08:49:56;6.00;99.90
74384;DHT22;62824;52.994;-3.936;2024-01-30T08:52:22;6.00;99.90
74384;DHT22;62824;52.994;-3.936;2024-01-30T08:54:48;5.90;99.90
74384;DHT22;62824;52.994;-3.936;2024-01-30T08:57:14;6.00;99.90
74384;DHT22;62824;52.994;-3.936;2024-01-30T08:59:43;5.90;99.90
74384;DHT22;62824;52.994;-3.936;2024-01-30T09:02:11;6.00;99.90
74384;DHT22;62824;52.994;-3.936;2024-01-30T09:04:38;6.00;99.90
74384;DHT22;62824;52.994;-3.936;2024-01-30T09:07:04;6.00;99.90
74384;DHT22;62824;52.994;-3.936;2024-01-30T09:09:34;6.00;99.90
74384;DHT22;62824;52.994;-3.936;2024-01-30T09:12:00;6.10;99.90
74384;DHT22;62824;52.994;-3.936;2024-01-30T09:14:32;6.10;99.90
74384;DHT22;62824;52.994;-3.936;2024-01-30T09:16:59;6.10;99.90
74384;DHT22;62824;52.994;-3.936;2024-01-30T09:19:28;6.10;99.90
74384;DHT22;62824;52.994;-3.936;2024-01-30T09:21:54;6.10;99.90
74384;DHT22;62824;52.994;-3.936;2024-01-30T09:24:26;6.10;99.90
74384;DHT22;62824;52.994;-3.936;2024-01-30T09:26:52;6.10;99.90
74384;DHT22;62824;52.994;-3.936;2024-01-30T09:29:19;6.10;99.90
74384;DHT22;62824;52.994;-3.936;2024-01-30T09:31:45;6.10;99.90
74384;DHT22;62824;52.994;-3.936;2024-01-30T09:34:12;6.10;99.90
74384;DHT22;62824;52.994;-3.936;2024-01-30T09:36:38;6.20;99.90
74384;DHT22;62824;52.994;-3.936;2024-01-30T09:39:04;6.20;99.90
74384;DHT22;62824;52.994;-3.936;2024-01-30T09:41:32;6.20;99.90
74384;DHT22;62824;52.994;-3.936;2024-01-30T09:43:59;6.20;99.90
74384;DHT22;62824;52.994;-3.936;2024-01-30T09:46:28;6.20;99.90
74384;DHT22;62824;52.994;-3.936;2024-01-30T09:48:58;6.20;99.90
74384;DHT22;62824;52.994;-3.936;2024-01-30T09:51:24;6.30;99.90
74384;DHT22;62824;52.994;-3.936;2024-01-30T09:53:51;6.30;99.90
74384;DHT22;62824;52.994;-3.936;2024-01-30T09:56:21;6.40;99.90
74384;DHT22;62824;52.994;-3.936;2024-01-30T09:58:53;6.40;99.90
74384;DHT22;62824;52.994;-3.936;2024-01-30T10:01:25;6.50;99.90
74384;DHT22;62824;52.994;-3.936;2024-01-30T10:03:55;6.40;99.90
74384;DHT22;62824;52.994;-3.936;2024-01-30T10:06:24;6.50;99.90
74384;DHT22;62824;52.994;-3.936;2024-01-30T10:08:51;6.40;99.90
74384;DHT22;62824;52.994;-3.936;2024-01-30T10:11:42;6.40;99.90
74384;DHT22;62824;52.994;-3.936;2024-01-30T10:40:09;6.80;99.90
74384;DHT22;62824;52.994;-3.936;2024-01-30T10:42:45;6.80;99.90
74384;DHT22;62824;52.994;-3.936;2024-01-30T10:45:14;6.80;99.90
74384;DHT22;62824;52.994;-3.936;2024-01-30T10:48:23;6.80;99.90
74384;DHT22;62824;52.994;-3.936;2024-01-30T10:50:55;6.70;99.90
74384;DHT22;62824;52.994;-3.936;2024-01-30T10:53:26;6.70;99.90
74384;DHT22;62824;52.994;-3.936;2024-01-30T10:55:54;6.90;99.90
74384;DHT22;62824;52.994;-3.936;2024-01-30T10:58:21;6.90;99.90
74384;DHT22;62824;52.994;-3.936;2024-01-30T11:00:49;7.00;99.90
74384;DHT22;62824;52.994;-3.936;2024-01-30T11:03:15;7.00;99.90
74384;DHT22;62824;52.994;-3.936;2024-01-30T11:05:42;7.10;99.90
74384;DHT22;62824;52.994;-3.936;2024-01-30T11:08:13;7.10;99.90
74384;DHT22;62824;52.994;-3.936;2024-01-30T11:10:48;7.20;99.90
74384;DHT22;62824;52.994;-3.936;2024-01-30T11:13:18;7.20;99.90
74384;DHT22;62824;52.994;-3.936;2024-01-30T11:16:04;7.20;99.90
74384;DHT22;62824;52.994;-3.936;2024-01-30T11:18:32;7.20;99.90
74384;DHT22;62824;52.994;-3.936;2024-01-30T11:24:41;7.20;99.90
74384;DHT22;62824;52.994;-3.936;2024-01-30T11:27:11;6.90;99.90
74384;DHT22;62824;52.994;-3.936;2024-01-30T11:29:40;7.00;99.90
74384;DHT22;62824;52.994;-3.936;2024-01-30T11:34:55;7.60;99.90
74384;DHT22;62824;52.994;-3.936;2024-01-30T11:37:21;9.40;99.90
74384;DHT22;62824;52.994;-3.936;2024-01-30T11:39:51;10.10;99.90
74384;DHT22;62824;52.994;-3.936;2024-01-30T11:42:17;9.60;84.10
74384;DHT22;62824;52.994;-3.936;2024-01-30T11:44:50;9.70;88.30
74384;DHT22;62824;52.994;-3.936;2024-01-30T11:47:26;9.90;83.90
74384;DHT22;62824;52.994;-3.936;2024-01-30T11:49:58;10.10;59.30
74384;DHT22;62824;52.994;-3.936;2024-01-30T11:52:45;9.70;76.10
74384;DHT22;62824;52.994;-3.936;2024-01-30T11:55:13;11.40;57.70
74384;DHT22;62824;52.994;-3.936;2024-01-30T11:57:42;12.40;29.60
74384;DHT22;62824;52.994;-3.936;2024-01-30T12:00:18;12.20;23.80
74384;DHT22;62824;52.994;-3.936;2024-01-30T12:02:49;11.20;28.30
74384;DHT22;62824;52.994;-3.936;2024-01-30T12:05:39;11.70;26.20
74384;DHT22;62824;52.994;-3.936;2024-01-30T12:08:15;11.30;24.50
74384;DHT22;62824;52.994;-3.936;2024-01-30T12:10:42;12.20;25.40
74384;DHT22;62824;52.994;-3.936;2024-01-30T12:13:15;13.30;19.20
74384;DHT22;62824;52.994;-3.936;2024-01-30T12:15:50;13.90;16.50
74384;DHT22;62824;52.994;-3.936;2024-01-30T12:18:19;14.50;15.10
74384;DHT22;62824;52.994;-3.936;2024-01-30T12:48:42;14.20;15.70
74384;DHT22;62824;52.994;-3.936;2024-01-30T12:51:26;14.60;11.50
74384;DHT22;62824;52.994;-3.936;2024-01-30T12:53:52;13.60;10.60
74384;DHT22;62824;52.994;-3.936;2024-01-30T12:56:41;12.40;13.90
74384;DHT22;62824;52.994;-3.936;2024-01-30T12:59:15;11.70;15.90
74384;DHT22;62824;52.994;-3.936;2024-01-30T13:01:46;12.40;16.20
74384;DHT22;62824;52.994;-3.936;2024-01-30T13:04:32;13.20;13.40
74384;DHT22;62824;52.994;-3.936;2024-01-30T13:06:59;13.30;14.50
74384;DHT22;62824;52.994;-3.936;2024-01-30T13:09:26;14.20;12.30
74384;DHT22;62824;52.994;-3.936;2024-01-30T13:11:59;14.40;10.40
74384;DHT22;62824;52.994;-3.936;2024-01-30T13:14:28;13.50;10.00
74384;DHT22;62824;52.994;-3.936;2024-01-30T13:17:00;12.30;12.80
74384;DHT22;62824;52.994;-3.936;2024-01-30T13:19:31;12.20;16.20
74384;DHT22;62824;52.994;-3.936;2024-01-30T13:21:57;12.00;17.60
74384;DHT22;62824;52.994;-3.936;2024-01-30T13:24:23;11.70;15.80
74384;DHT22;62824;52.994;-3.936;2024-01-30T13:26:52;11.50;19.30
74384;DHT22;62824;52.994;-3.936;2024-01-30T13:29:21;11.30;20.60
74384;DHT22;62824;52.994;-3.936;2024-01-30T13:31:47;10.90;16.80
74384;DHT22;62824;52.994;-3.936;2024-01-30T13:34:18;10.70;18.40
74384;DHT22;62824;52.994;-3.936;2024-01-30T13:36:47;10.50;18.60
74384;DHT22;62824;52.994;-3.936;2024-01-30T13:39:17;10.40;21.90
74384;DHT22;62824;52.994;-3.936;2024-01-30T13:44:45;10.20;21.00
74384;DHT22;62824;52.994;-3.936;2024-01-30T13:50:30;10.50;24.90
74384;DHT22;62824;52.994;-3.936;2024-01-30T13:53:14;10.30;22.80
74384;DHT22;62824;52.994;-3.936;2024-01-30T13:56:05;10.50;25.70
74384;DHT22;62824;52.994;-3.936;2024-01-30T13:58:58;10.30;23.10
74384;DHT22;62824;52.994;-3.936;2024-01-30T14:01:33;10.40;22.30
74384;DHT22;62824;52.994;-3.936;2024-01-30T14:07:41;10.20;25.90
74384;DHT22;62824;52.994;-3.936;2024-01-30T14:10:38;9.80;27.50
74384;DHT22;62824;52.994;-3.936;2024-01-30T14:13:10;9.90;28.30
74384;DHT22;62824;52.994;-3.936;2024-01-30T14:15:46;9.90;30.60
74384;DHT22;62824;52.994;-3.936;2024-01-30T14:18:15;9.70;25.00
74384;DHT22;62824;52.994;-3.936;2024-01-30T14:20:42;9.70;33.40
74384;DHT22;62824;52.994;-3.936;2024-01-30T14:23:12;9.70;34.70
74384;DHT22;62824;52.994;-3.936;2024-01-30T14:25:55;9.70;47.20
74384;DHT22;62824;52.994;-3.936;2024-01-30T14:28:21;9.80;41.40
74384;DHT22;62824;52.994;-3.936;2024-01-30T14:31:03;9.70;39.30
74384;DHT22;62824;52.994;-3.936;2024-01-30T14:33:31;9.70;37.80
74384;DHT22;62824;52.994;-3.936;2024-01-30T14:36:00;9.70;37.00
74384;DHT22;62824;52.994;-3.936;2024-01-30T14:38:38;9.50;45.10
74384;DHT22;62824;52.994;-3.936;2024-01-30T14:41:26;9.40;44.90
74384;DHT22;62824;52.994;-3.936;2024-01-30T14:47:06;9.40;59.80
74384;DHT22;62824;52.994;-3.936;2024-01-30T14:49:44;9.50;74.20
74384;DHT22;62824;52.994;-3.936;2024-01-30T14:52:47;9.60;77.20
74384;DHT22;62824;52.994;-3.936;2024-01-30T14:56:05;9.50;91.80
74384;DHT22;62824;52.994;-3.936;2024-01-30T14:58:54;9.30;95.50
74384;DHT22;62824;52.994;-3.936;2024-01-30T15:01:40;9.10;94.90
74384;DHT22;62824;52.994;-3.936;2024-01-30T15:04:14;9.20;95.60
74384;DHT22;62824;52.994;-3.936;2024-01-30T15:06:43;9.00;94.70
74384;DHT22;62824;52.994;-3.936;2024-01-30T15:09:21;9.10;97.50
74384;DHT22;62824;52.994;-3.936;2024-01-30T15:11:51;9.10;93.10
74384;DHT22;62824;52.994;-3.936;2024-01-30T15:14:21;9.10;94.30
74384;DHT22;62824;52.994;-3.936;2024-01-30T15:16:51;8.90;94.30
74384;DHT22;62824;52.994;-3.936;2024-01-30T15:19:18;9.00;95.50
74384;DHT22;62824;52.994;-3.936;2024-01-30T15:21:55;9.10;90.00
74384;DHT22;62824;52.994;-3.936;2024-01-30T15:24:23;9.10;92.60
74384;DHT22;62824;52.994;-3.936;2024-01-30T15:26:58;9.10;96.00
74384;DHT22;62824;52.994;-3.936;2024-01-30T15:29:27;9.10;94.10
74384;DHT22;62824;52.994;-3.936;2024-01-30T15:32:01;9.00;96.20
74384;DHT22;62824;52.994;-3.936;2024-01-30T15:34:34;8.90;99.70
74384;DHT22;62824;52.994;-3.936;2024-01-30T15:37:01;8.90;99.90
74384;DHT22;62824;52.994;-3.936;2024-01-30T15:39:32;9.10;99.90
74384;DHT22;62824;52.994;-3.936;2024-01-30T15:41:59;9.10;99.90
74384;DHT22;62824;52.994;-3.936;2024-01-30T15:44:34;9.10;99.90
74384;DHT22;62824;52.994;-3.936;2024-01-30T15:47:04;9.20;99.90
74384;DHT22;62824;52.994;-3.936;2024-01-30T15:49:42;9.00;99.90
74384;DHT22;62824;52.994;-3.936;2024-01-30T15:52:12;9.10;99.90
74384;DHT22;62824;52.994;-3.936;2024-01-30T15:54:41;9.00;99.90
74384;DHT22;62824;52.994;-3.936;2024-01-30T15:57:10;9.00;99.90
74384;DHT22;62824;52.994;-3.936;2024-01-30T15:59:36;8.90;99.90
74384;DHT22;62824;52.994;-3.936;2024-01-30T16:02:05;8.90;99.90
74384;DHT22;62824;52.994;-3.936;2024-01-30T16:04:31;8.80;99.90
74384;DHT22;62824;52.994;-3.936;2024-01-30T16:06:57;8.80;99.90
74384;DHT22;62824;52.994;-3.936;2024-01-30T16:09:24;8.70;99.90
74384;DHT22;62824;52.994;-3.936;2024-01-30T16:11:50;8.70;99.90
74384;DHT22;62824;52.994;-3.936;2024-01-30T16:14:18;8.70;99.90
74384;DHT22;62824;52.994;-3.936;2024-01-30T16:17:09;8.70;99.90
74384;DHT22;62824;52.994;-3.936;2024-01-30T16:19:44;8.70;99.90
74384;DHT22;62824;52.994;-3.936;2024-01-30T16:22:11;8.70;99.90
74384;DHT22;62824;52.994;-3.936;2024-01-30T16:24:37;8.60;99.90
74384;DHT22;62824;52.994;-3.936;2024-01-30T16:27:06;8.60;99.90
74384;DHT22;62824;52.994;-3.936;2024-01-30T16:29:43;8.40;99.90
74384;DHT22;62824;52.994;-3.936;2024-01-30T16:32:11;8.40;99.90
74384;DHT22;62824;52.994;-3.936;2024-01-30T16:34:37;8.30;99.90
74384;DHT22;62824;52.994;-3.936;2024-01-30T16:37:03;8.40;99.90
74384;DHT22;62824;52.994;-3.936;2024-01-30T16:39:30;8.30;99.90
74384;DHT22;62824;52.994;-3.936;2024-01-30T16:41:56;8.30;99.90
74384;DHT22;62824;52.994;-3.936;2024-01-30T16:44:22;8.20;99.90
74384;DHT22;62824;52.994;-3.936;2024-01-30T16:46:51;8.20;99.90
74384;DHT22;62824;52.994;-3.936;2024-01-30T16:49:18;8.00;99.90
74384;DHT22;62824;52.994;-3.936;2024-01-30T16:51:48;7.90;99.90
74384;DHT22;62824;52.994;-3.936;2024-01-30T16:54:19;7.70;99.90
74384;DHT22;62824;52.994;-3.936;2024-01-30T16:56:45;7.70;99.90
74384;DHT22;62824;52.994;-3.936;2024-01-30T16:59:14;7.60;99.90
74384;DHT22;62824;52.994;-3.936;2024-01-30T17:01:41;7.60;99.90
74384;DHT22;62824;52.994;-3.936;2024-01-30T17:04:20;7.60;99.90
74384;DHT22;62824;52.994;-3.936;2024-01-30T17:06:50;7.50;99.90
74384;DHT22;62824;52.994;-3.936;2024-01-30T17:09:18;7.50;99.90
74384;DHT22;62824;52.994;-3.936;2024-01-30T17:11:55;7.40;99.90
74384;DHT22;62824;52.994;-3.936;2024-01-30T17:34:53;7.20;99.90
74384;DHT22;62824;52.994;-3.936;2024-01-30T17:37:21;7.30;99.90
74384;DHT22;62824;52.994;-3.936;2024-01-30T17:39:47;7.30;99.90
74384;DHT22;62824;52.994;-3.936;2024-01-30T17:42:14;7.40;99.90
74384;DHT22;62824;52.994;-3.936;2024-01-30T17:44:43;7.40;99.90
74384;DHT22;62824;52.994;-3.936;2024-01-30T17:50:39;7.30;99.90
74384;DHT22;62824;52.994;-3.936;2024-01-30T17:53:07;7.40;99.90
74384;DHT22;62824;52.994;-3.936;2024-01-30T17:55:36;7.50;99.90
74384;DHT22;62824;52.994;-3.936;2024-01-30T17:58:05;7.60;99.90
74384;DHT22;62824;52.994;-3.936;2024-01-30T18:00:41;7.60;99.90
74384;DHT22;62824;52.994;-3.936;2024-01-30T18:03:11;7.60;99.90
74384;DHT22;62824;52.994;-3.936;2024-01-30T18:05:37;7.50;99.90
74384;DHT22;62824;52.994;-3.936;2024-01-30T18:08:03;7.40;99.90
74384;DHT22;62824;52.994;-3.936;2024-01-30T18:10:32;7.30;99.90
74384;DHT22;62824;52.994;-3.936;2024-01-30T18:13:11;7.30;99.90
74384;DHT22;62824;52.994;-3.936;2024-01-30T18:15:49;7.20;99.90
74384;DHT22;62824;52.994;-3.936;2024-01-30T18:18:28;7.10;99.90
74384;DHT22;62824;52.994;-3.936;2024-01-30T18:21:08;7.00;99.90
74384;DHT22;62824;52.994;-3.936;2024-01-30T18:23:52;7.00;99.90
74384;DHT22;62824;52.994;-3.936;2024-01-30T18:26:52;6.90;99.90
74384;DHT22;62824;52.994;-3.936;2024-01-30T18:29:42;6.90;99.90
74384;DHT22;62824;52.994;-3.936;2024-01-30T18:32:18;6.80;99.90
74384;DHT22;62824;52.994;-3.936;2024-01-30T18:34:53;6.80;99.90
74384;DHT22;62824;52.994;-3.936;2024-01-30T18:37:24;6.80;99.90
74384;DHT22;62824;52.994;-3.936;2024-01-30T18:39:55;6.70;99.90
74384;DHT22;62824;52.994;-3.936;2024-01-30T22:08:06;6.00;99.90
74384;DHT22;62824;52.994;-3.936;2024-01-30T22:13:22;6.00;99.90
74384;DHT22;62824;52.994;-3.936;2024-01-30T22:15:50;6.00;99.90
74384;DHT22;62824;52.994;-3.936;2024-01-30T22:18:31;5.90;99.90